Altona, New York
Current Conditions -  °F | °C
As of 6:53 AM on Saturday 22 Nov 2014 (Local Time) from KPBG Reporting Station
Overcast Overcast  
Wind Chill: 14°   Ceiling: 3600
Heat Index: 24°   Visibility: 10mi
Dew Point: 17°   Wind: 9mph
Humidity: 75%   Direction: 170°S
Pressure: 30.24"   Gusts: NA
Location:  44.89°N, 73.66°W
Report Text: KPBG 221153Z AUTO 17008KT 10SM BKN036 OVC100 M04/M08 A3024 RMK AO2 SLP246 T10441083 11044 21072 56018
Loading
Personal Weather Stations






























Interactive Weather Map New forecast layout! Learn more

10-Day Weather Forecast

Advertisements
Track Severe Weather on mobile